Time;durP1;ratioP1;P1;durP2;ratioP2;P2;SDS_P1;SDS_P2;PMS_P1;PMS_P2;Temp;Humidity;BMP_temperature;BMP_pressure;BME280_temperature;BME280_humidity;BME280_pressure;Samples;Min_cycle;Max_cycle;Signal;HPM_P1;HPM_P2
2023/01/27 00:02:02;;;;;;;4.50;1.30;;;23.10;99.90;;;;;;5068740;28;20320;-80
2023/01/27 00:04:33;;;;;;;5.78;1.60;;;23.30;99.90;;;;;;5070458;28;20628;-81
2023/01/27 00:07:04;;;;;;;6.80;1.67;;;23.80;99.90;;;;;;5062816;28;20307;-80
2023/01/27 00:09:35;;;;;;;3.83;1.23;;;24.10;99.90;;;;;;5059298;28;20233;-81
2023/01/27 00:14:53;;;;;;;4.18;1.27;;;24.40;99.90;;;;;;5078098;28;20203;-81
2023/01/27 00:17:26;;;;;;;6.72;1.30;;;24.60;99.90;;;;;;5063173;28;20185;-80
2023/01/27 00:19:57;;;;;;;3.58;1.25;;;25.00;99.90;;;;;;5069476;28;20205;-80
2023/01/27 00:25:15;;;;;;;5.05;1.17;;;25.60;99.90;;;;;;5072043;28;20207;-79
2023/01/27 00:27:46;;;;;;;4.57;1.48;;;25.80;99.90;;;;;;5076112;28;20303;-80
2023/01/27 00:30:18;;;;;;;7.18;1.15;;;25.70;99.90;;;;;;5065289;28;20201;-79
2023/01/27 00:35:37;;;;;;;2.67;1.00;;;25.50;99.90;;;;;;5072582;28;20251;-79
2023/01/27 00:38:07;;;;;;;4.22;1.15;;;25.60;99.90;;;;;;5067605;28;20657;-79
2023/01/27 00:40:39;;;;;;;2.92;1.30;;;25.80;99.90;;;;;;5070816;28;20215;-79
2023/01/27 00:43:10;;;;;;;4.57;1.10;;;25.90;99.90;;;;;;5071494;28;20223;-79
2023/01/27 00:45:50;;;;;;;3.05;1.20;;;25.90;99.90;;;;;;5071905;28;20197;-79
2023/01/27 00:48:23;;;;;;;4.55;0.93;;;25.70;99.90;;;;;;5067964;28;20200;-79
2023/01/27 00:50:54;;;;;;;5.65;1.63;;;25.80;99.90;;;;;;5070386;28;20728;-80
2023/01/27 00:53:24;;;;;;;5.53;1.27;;;25.90;99.90;;;;;;5069320;28;20690;-81
2023/01/27 00:55:57;;;;;;;6.07;1.98;;;25.90;99.90;;;;;;5069302;28;20311;-79
2023/01/27 00:58:28;;;;;;;3.35;1.20;;;25.90;99.90;;;;;;5073029;28;20197;-80
2023/01/27 01:01:02;;;;;;;4.32;1.50;;;25.90;99.90;;;;;;5075606;28;20199;-80
2023/01/27 01:03:37;;;;;;;3.92;1.42;;;25.90;99.90;;;;;;5074179;28;20192;-79
2023/01/27 01:06:10;;;;;;;4.10;2.35;;;25.90;99.90;;;;;;5065289;28;20723;-79
2023/01/27 01:08:42;;;;;;;4.53;1.20;;;25.90;99.90;;;;;;5064717;28;20743;-79
2023/01/27 01:11:15;;;;;;;5.15;1.30;;;25.90;99.90;;;;;;5056711;28;20193;-80
2023/01/27 01:13:46;;;;;;;3.63;1.20;;;25.80;99.90;;;;;;5073625;28;20207;-79
2023/01/27 01:16:19;;;;;;;5.10;1.30;;;25.90;99.90;;;;;;5076755;28;20714;-81
2023/01/27 01:18:52;;;;;;;4.93;1.23;;;26.00;99.90;;;;;;5076282;28;20708;-80
2023/01/27 01:21:23;;;;;;;3.50;1.00;;;26.10;99.90;;;;;;5075487;28;20215;-80
2023/01/27 01:23:54;;;;;;;5.85;1.48;;;26.20;99.90;;;;;;5065758;28;20220;-80
2023/01/27 01:26:25;;;;;;;6.93;1.23;;;26.30;99.90;;;;;;5075268;28;20216;-83
2023/01/27 01:28:56;;;;;;;3.90;1.33;;;26.60;99.90;;;;;;5073554;28;20197;-79
2023/01/27 01:31:27;;;;;;;6.70;1.20;;;26.80;99.90;;;;;;5067755;28;20196;-79
2023/01/27 01:34:00;;;;;;;4.30;1.05;;;26.80;99.90;;;;;;5070320;28;20280;-80
2023/01/27 01:36:31;;;;;;;4.00;1.10;;;26.80;99.90;;;;;;5074681;28;20204;-78
2023/01/27 01:39:02;;;;;;;3.88;1.17;;;26.90;99.90;;;;;;5074350;28;20284;-79
2023/01/27 01:41:33;;;;;;;4.97;1.02;;;26.90;99.90;;;;;;5063534;28;20189;-79
2023/01/27 01:44:21;;;;;;;4.38;1.17;;;26.90;99.90;;;;;;5062652;28;20251;-81
2023/01/27 01:46:52;;;;;;;5.45;1.30;;;27.00;99.90;;;;;;5058192;28;20262;-79
2023/01/27 01:49:29;;;;;;;6.43;1.55;;;26.90;99.90;;;;;;5071945;28;20211;-78
2023/01/27 01:52:03;;;;;;;5.68;1.33;;;26.80;99.90;;;;;;5059917;28;20283;-78
2023/01/27 01:54:37;;;;;;;47.35;39.88;;;26.70;99.90;;;;;;5072818;28;20219;-75
2023/01/27 01:57:12;;;;;;;6.65;2.70;;;26.80;99.90;;;;;;5100395;22;20331;-79
2023/01/27 01:59:46;;;;;;;3.72;1.20;;;26.60;99.90;;;;;;5073334;28;20207;-80
2023/01/27 02:02:20;;;;;;;5.55;1.40;;;26.50;99.90;;;;;;5074284;28;20196;-80
2023/01/27 02:04:58;;;;;;;8.00;1.98;;;26.40;99.90;;;;;;5068215;28;20201;-78
2023/01/27 02:07:33;;;;;;;7.05;1.27;;;26.30;99.90;;;;;;5071154;28;20209;-79
2023/01/27 02:10:04;;;;;;;6.78;1.30;;;26.20;99.90;;;;;;5070529;28;20283;-80
2023/01/27 02:12:35;;;;;;;6.50;1.45;;;26.10;99.90;;;;;;5069482;28;20243;-79
2023/01/27 02:15:07;;;;;;;6.47;1.50;;;26.10;99.90;;;;;;5075487;28;20641;-80
2023/01/27 02:17:39;;;;;;;6.10;1.17;;;26.30;99.90;;;;;;5074943;28;20199;-79
2023/01/27 02:20:20;;;;;;;4.82;1.33;;;26.40;99.90;;;;;;5074740;28;20592;-80
2023/01/27 02:22:57;;;;;;;7.15;1.40;;;26.40;99.90;;;;;;5073551;28;20217;-76
2023/01/27 02:25:39;;;;;;;5.28;1.48;;;26.50;99.90;;;;;;5074191;28;20193;-76
2023/01/27 02:28:11;;;;;;;4.72;1.35;;;26.70;99.90;;;;;;5072953;28;20212;-79
2023/01/27 02:30:43;;;;;;;6.97;1.27;;;26.90;99.90;;;;;;5066391;28;20284;-79
2023/01/27 02:33:14;;;;;;;4.28;1.30;;;27.10;99.90;;;;;;5069188;28;20196;-80
2023/01/27 02:35:53;;;;;;;5.55;1.35;;;27.30;99.90;;;;;;5061180;28;20197;-77
2023/01/27 02:38:25;;;;;;;7.20;1.55;;;27.40;99.90;;;;;;5068106;28;20208;-78
2023/01/27 02:41:01;;;;;;;6.97;1.35;;;27.40;99.90;;;;;;5073927;28;20204;-78
2023/01/27 02:43:32;;;;;;;13.20;7.25;;;27.60;99.90;;;;;;5074264;28;20232;-75
2023/01/27 02:46:02;;;;;;;12.32;6.00;;;27.40;99.90;;;;;;5073760;28;20292;-79
2023/01/27 02:48:33;;;;;;;4.43;1.38;;;27.40;99.90;;;;;;5073370;28;20212;-77
2023/01/27 02:51:04;;;;;;;6.05;1.52;;;27.20;99.90;;;;;;5073823;28;20563;-76
2023/01/27 02:53:35;;;;;;;5.15;1.60;;;27.00;99.90;;;;;;5072068;28;20192;-77
2023/01/27 02:56:09;;;;;;;5.80;1.30;;;26.80;99.90;;;;;;5073167;28;20761;-77
2023/01/27 02:58:40;;;;;;;4.78;1.50;;;26.80;99.90;;;;;;5073094;28;20646;-77
2023/01/27 03:01:11;;;;;;;5.28;1.60;;;26.80;99.90;;;;;;5073060;28;20201;-77
2023/01/27 03:03:45;;;;;;;6.00;1.48;;;26.70;99.90;;;;;;5061946;28;20193;-78
2023/01/27 03:06:16;;;;;;;5.28;1.10;;;26.80;99.90;;;;;;5063801;28;20204;-77
2023/01/27 03:08:47;;;;;;;4.40;1.20;;;26.80;99.90;;;;;;5070822;28;20307;-76
2023/01/27 03:12:18;;;;;;;5.13;1.40;;;26.70;99.90;;;;;;5073453;28;20219;-77
2023/01/27 03:14:15;;;;;;;5.07;1.55;;;26.70;99.90;;;;;;5072718;28;20277;-76
2023/01/27 03:19:32;;;;;;;9.40;1.30;;;26.80;99.90;;;;;;5072543;28;20200;-76
2023/01/27 03:22:03;;;;;;;4.07;1.13;;;26.70;99.90;;;;;;5073005;28;20276;-77
2023/01/27 03:24:34;;;;;;;5.00;1.27;;;26.70;99.90;;;;;;5071864;28;20289;-76
2023/01/27 03:27:07;;;;;;;4.60;1.30;;;26.60;99.90;;;;;;5073665;28;20223;-77
2023/01/27 03:32:34;;;;;;;4.00;1.17;;;26.60;99.90;;;;;;5023919;28;20201;-76
2023/01/27 03:35:05;;;;;;;3.60;1.10;;;26.60;99.90;;;;;;5069981;28;20554;-76
2023/01/27 03:46:18;;;;;;;3.90;1.15;;;26.80;99.90;;;;;;5072149;28;20307;-76
2023/01/27 03:48:52;;;;;;;4.40;1.30;;;26.90;99.90;;;;;;5068900;28;20232;-76
2023/01/27 03:51:24;;;;;;;6.82;1.27;;;27.10;99.90;;;;;;5068448;28;20193;-77
2023/01/27 03:53:55;;;;;;;5.93;1.30;;;27.30;99.90;;;;;;5069491;28;20571;-76
2023/01/27 03:56:26;;;;;;;9.40;1.30;;;27.30;99.90;;;;;;5073022;28;20223;-76
2023/01/27 03:58:59;;;;;;;5.50;1.30;;;27.30;99.90;;;;;;5073713;28;20288;-76
2023/01/27 04:01:31;;;;;;;4.60;1.10;;;27.20;99.90;;;;;;5073649;28;20197;-77
2023/01/27 04:06:55;;;;;;;3.10;1.05;;;27.30;99.90;;;;;;5072459;28;20278;-76
2023/01/27 04:09:27;;;;;;;4.07;1.30;;;27.20;99.90;;;;;;5072592;28;20209;-77
2023/01/27 04:12:00;;;;;;;4.13;1.23;;;27.20;99.90;;;;;;5071889;28;20735;-76
2023/01/27 04:14:34;;;;;;;5.20;1.20;;;27.10;99.90;;;;;;5070936;28;20284;-76
2023/01/27 04:17:06;;;;;;;4.85;1.17;;;27.00;99.90;;;;;;5070318;28;20197;-77
2023/01/27 04:19:37;;;;;;;5.20;1.50;;;26.90;99.90;;;;;;5071525;28;20197;-75
2023/01/27 04:22:09;;;;;;;6.25;1.27;;;26.80;99.90;;;;;;5068076;28;20284;-76
2023/01/27 04:24:40;;;;;;;4.13;1.23;;;26.90;99.90;;;;;;5072669;28;20204;-76
2023/01/27 04:27:12;;;;;;;6.72;1.45;;;26.80;99.90;;;;;;5070780;28;20724;-76
2023/01/27 04:29:46;;;;;;;7.57;1.70;;;26.90;99.90;;;;;;5067202;28;20204;-77
2023/01/27 04:32:17;;;;;;;3.72;1.13;;;26.80;99.90;;;;;;5069175;28;20291;-76
2023/01/27 04:34:48;;;;;;;4.85;1.30;;;26.80;99.90;;;;;;5071748;28;20197;-77
2023/01/27 04:37:19;;;;;;;4.82;1.33;;;26.90;99.90;;;;;;5069983;28;20200;-76
2023/01/27 04:39:50;;;;;;;3.25;1.10;;;26.80;99.90;;;;;;5070538;28;20204;-77
2023/01/27 04:42:24;;;;;;;3.58;1.27;;;26.80;99.90;;;;;;5067768;28;20225;-77
2023/01/27 04:44:57;;;;;;;5.38;1.20;;;26.90;99.90;;;;;;5068331;28;20279;-77
2023/01/27 04:47:28;;;;;;;3.80;1.20;;;27.00;99.90;;;;;;5068663;28;20244;-77
2023/01/27 04:49:59;;;;;;;3.95;1.10;;;27.00;99.90;;;;;;5055020;28;20197;-77
2023/01/27 04:52:30;;;;;;;6.47;1.63;;;27.00;99.90;;;;;;5063763;28;20200;-77
2023/01/27 04:55:00;;;;;;;3.30;1.20;;;27.00;99.90;;;;;;5054702;28;20189;-77
2023/01/27 04:57:31;;;;;;;5.95;1.30;;;27.00;99.90;;;;;;5071824;28;20236;-76
2023/01/27 05:00:05;;;;;;;5.80;1.40;;;27.00;99.90;;;;;;5072000;28;20290;-76
2023/01/27 05:02:36;;;;;;;6.30;1.40;;;27.00;99.90;;;;;;5069748;28;20196;-76
2023/01/27 05:05:07;;;;;;;6.53;1.20;;;26.90;99.90;;;;;;5071246;28;20277;-77
2023/01/27 05:07:38;;;;;;;3.00;1.20;;;26.90;99.90;;;;;;5069890;28;20328;-76
2023/01/27 05:10:10;;;;;;;7.18;1.63;;;26.80;99.90;;;;;;5067275;28;20201;-77
2023/01/27 05:12:41;;;;;;;4.80;1.30;;;26.70;99.90;;;;;;5072328;28;20189;-77
2023/01/27 05:15:14;;;;;;;4.80;1.17;;;26.60;99.90;;;;;;5069719;28;20201;-76
2023/01/27 05:17:45;;;;;;;4.55;1.15;;;26.60;99.90;;;;;;5072094;28;20199;-77
2023/01/27 05:20:19;;;;;;;6.30;1.30;;;26.50;99.90;;;;;;5072670;28;20636;-77
2023/01/27 05:23:33;;;;;;;6.22;1.45;;;26.60;99.90;;;;;;5072722;28;20196;-77
2023/01/27 05:25:46;;;;;;;5.90;1.58;;;26.50;99.90;;;;;;5072648;28;20686;-76
2023/01/27 05:28:18;;;;;;;9.20;1.70;;;26.50;99.90;;;;;;5072253;28;20216;-77
2023/01/27 05:30:51;;;;;;;5.00;1.27;;;26.50;99.90;;;;;;5061059;28;20203;-77
2023/01/27 05:33:22;;;;;;;5.95;1.48;;;26.50;99.90;;;;;;5072375;28;20235;-77
2023/01/27 05:35:53;;;;;;;8.00;1.60;;;26.50;99.90;;;;;;5072352;28;20196;-78
2023/01/27 05:38:24;;;;;;;9.57;1.88;;;26.50;99.90;;;;;;5072828;28;20639;-77
2023/01/27 05:40:59;;;;;;;8.75;1.50;;;26.50;99.90;;;;;;5073109;28;20228;-77
2023/01/27 05:43:31;;;;;;;5.30;1.38;;;26.50;99.90;;;;;;5072694;28;20265;-77
2023/01/27 05:46:09;;;;;;;6.03;1.58;;;26.50;99.90;;;;;;5076482;28;20276;-78
2023/01/27 05:48:41;;;;;;;7.75;1.50;;;26.40;99.90;;;;;;5076433;28;20227;-77
2023/01/27 05:51:13;;;;;;;5.53;1.60;;;26.40;99.90;;;;;;5079333;28;20283;-76
2023/01/27 05:53:44;;;;;;;7.32;1.60;;;26.40;99.90;;;;;;5096340;28;20204;-77
2023/01/27 05:56:17;;;;;;;5.70;1.83;;;26.40;99.90;;;;;;5096365;28;20308;-78
2023/01/27 05:58:48;;;;;;;8.65;1.92;;;26.30;99.90;;;;;;5078069;28;20246;-77
2023/01/27 06:01:22;;;;;;;8.18;1.73;;;26.20;99.90;;;;;;5075877;28;20191;-77
2023/01/27 06:03:53;;;;;;;10.15;1.83;;;26.10;99.90;;;;;;5074266;28;20197;-79
2023/01/27 06:06:25;;;;;;;5.78;1.70;;;26.10;99.90;;;;;;5075892;28;20276;-78
2023/01/27 06:08:57;;;;;;;5.22;1.52;;;26.10;99.90;;;;;;5073112;28;20573;-77
2023/01/27 06:11:28;;;;;;;8.00;1.98;;;26.10;99.90;;;;;;5075986;28;20280;-77
2023/01/27 06:13:59;;;;;;;5.93;1.85;;;26.10;99.90;;;;;;5075745;28;20244;-78
2023/01/27 06:16:32;;;;;;;9.32;1.88;;;26.20;99.90;;;;;;5075768;28;20189;-77
2023/01/27 06:19:03;;;;;;;7.10;1.70;;;26.40;99.90;;;;;;5071572;28;20247;-77
2023/01/27 06:21:34;;;;;;;6.88;1.60;;;26.50;99.90;;;;;;5075543;28;20609;-78
2023/01/27 06:24:05;;;;;;;8.00;1.83;;;26.50;99.90;;;;;;5075645;28;20199;-77
2023/01/27 06:26:36;;;;;;;8.10;1.88;;;26.60;99.90;;;;;;5074169;28;20210;-77
2023/01/27 06:29:07;;;;;;;9.65;2.00;;;26.70;99.90;;;;;;5074968;28;20694;-77
2023/01/27 06:31:41;;;;;;;8.43;2.05;;;26.60;99.90;;;;;;5074849;28;20189;-76
2023/01/27 06:34:12;;;;;;;6.22;1.50;;;26.60;99.90;;;;;;5074190;28;20568;-77
2023/01/27 06:36:43;;;;;;;11.50;2.17;;;26.60;99.90;;;;;;5063973;28;20276;-77
2023/01/27 06:39:15;;;;;;;9.90;1.85;;;26.40;99.90;;;;;;5074652;28;20189;-77
2023/01/27 06:41:46;;;;;;;7.80;1.73;;;26.20;99.90;;;;;;5078890;28;20263;-77
2023/01/27 06:44:17;;;;;;;14.82;2.03;;;26.00;99.90;;;;;;5095437;28;20639;-77
2023/01/27 06:46:50;;;;;;;10.20;2.28;;;25.90;99.90;;;;;;5082303;28;20199;-77
2023/01/27 06:49:21;;;;;;;7.97;1.98;;;25.90;99.90;;;;;;5075384;28;20570;-77
2023/01/27 06:51:52;;;;;;;7.35;1.98;;;25.80;99.90;;;;;;5074854;28;20192;-77
2023/01/27 06:54:23;;;;;;;7.22;1.90;;;25.80;99.90;;;;;;5071588;28;20197;-78
2023/01/27 06:56:53;;;;;;;8.52;1.92;;;25.70;99.90;;;;;;5073236;28;20236;-77
2023/01/27 06:59:25;;;;;;;7.95;1.73;;;25.80;99.90;;;;;;5074899;28;20193;-76
2023/01/27 07:01:57;;;;;;;5.65;1.75;;;25.90;99.90;;;;;;5074098;28;20192;-78
2023/01/27 07:04:28;;;;;;;8.00;1.80;;;25.90;99.90;;;;;;5074544;28;20275;-78
2023/01/27 07:06:59;;;;;;;7.78;1.77;;;26.00;99.90;;;;;;5072089;28;20189;-77
2023/01/27 07:09:31;;;;;;;10.25;1.90;;;26.00;99.90;;;;;;5074600;28;20217;-77
2023/01/27 07:12:04;;;;;;;6.28;1.67;;;26.00;99.90;;;;;;5071048;28;20203;-78
2023/01/27 07:14:35;;;;;;;6.88;1.80;;;25.90;99.90;;;;;;5068552;28;20232;-77
2023/01/27 07:17:09;;;;;;;8.13;1.77;;;25.90;99.90;;;;;;5073354;28;20213;-77
2023/01/27 07:19:39;;;;;;;9.18;1.75;;;25.90;99.90;;;;;;5073823;28;20570;-77
2023/01/27 07:22:12;;;;;;;11.40;1.85;;;25.90;99.90;;;;;;5074356;28;20338;-77
2023/01/27 07:24:43;;;;;;;9.32;2.42;;;25.90;99.90;;;;;;5072848;28;20205;-78
2023/01/27 07:27:14;;;;;;;9.80;2.28;;;25.70;99.90;;;;;;5072453;28;20284;-78
2023/01/27 07:29:45;;;;;;;6.10;2.08;;;25.60;99.90;;;;;;5067038;28;20216;-78
2023/01/27 07:32:19;;;;;;;9.02;1.80;;;25.50;99.90;;;;;;5068393;28;20560;-78
2023/01/27 07:34:53;;;;;;;10.95;2.08;;;25.40;99.90;;;;;;5069691;28;20196;-78
2023/01/27 07:37:23;;;;;;;8.90;1.83;;;25.40;99.90;;;;;;5071814;28;20229;-78
2023/01/27 07:39:54;;;;;;;8.60;2.38;;;25.40;99.90;;;;;;5071261;28;20211;-76
2023/01/27 07:42:26;;;;;;;6.72;1.60;;;25.30;99.90;;;;;;5071618;28;20773;-78
2023/01/27 07:44:57;;;;;;;9.57;1.80;;;25.20;99.90;;;;;;5072411;28;20215;-77
2023/01/27 07:47:30;;;;;;;9.23;1.73;;;25.20;99.90;;;;;;5071679;28;20193;-77
2023/01/27 07:50:01;;;;;;;9.18;2.00;;;25.20;99.90;;;;;;5072536;28;20223;-78
2023/01/27 07:52:32;;;;;;;7.05;2.10;;;25.10;99.90;;;;;;5068587;28;20192;-77
2023/01/27 07:55:03;;;;;;;12.65;2.25;;;25.10;99.90;;;;;;5071931;28;20193;-78
2023/01/27 07:57:34;;;;;;;9.60;2.08;;;25.10;99.90;;;;;;5073089;28;20713;-78
2023/01/27 08:00:05;;;;;;;10.38;2.10;;;25.10;99.90;;;;;;5070736;28;20197;-78
2023/01/27 08:02:39;;;;;;;7.32;1.95;;;25.00;99.90;;;;;;5073568;28;20205;-77
2023/01/27 08:05:10;;;;;;;7.30;1.48;;;25.10;99.90;;;;;;5073335;28;20211;-78
2023/01/27 08:07:41;;;;;;;7.38;1.85;;;25.10;99.90;;;;;;5068195;28;20205;-78
2023/01/27 08:10:13;;;;;;;7.15;1.70;;;25.00;99.90;;;;;;5072907;28;20348;-78
2023/01/27 08:12:44;;;;;;;10.52;1.80;;;25.00;99.90;;;;;;5064004;28;20201;-77
2023/01/27 08:15:16;;;;;;;8.88;1.90;;;24.90;99.90;;;;;;5064573;28;20231;-79
2023/01/27 08:17:56;;;;;;;10.40;2.35;;;24.80;99.90;;;;;;5066484;28;20199;-78
2023/01/27 08:20:28;;;;;;;7.90;2.00;;;24.80;99.90;;;;;;5069389;28;20279;-77
2023/01/27 08:22:59;;;;;;;9.05;1.98;;;24.80;99.90;;;;;;5069110;28;20573;-79
2023/01/27 08:25:30;;;;;;;8.13;2.13;;;24.70;99.90;;;;;;5071846;28;20554;-77
2023/01/27 08:28:01;;;;;;;10.07;1.98;;;24.70;99.90;;;;;;5071264;28;20196;-78
2023/01/27 08:30:32;;;;;;;7.95;1.90;;;24.60;99.90;;;;;;5069104;28;20213;-77
2023/01/27 08:33:05;;;;;;;10.50;2.50;;;24.60;99.90;;;;;;5072871;28;20280;-77
2023/01/27 08:35:41;;;;;;;8.60;2.10;;;24.60;99.90;;;;;;5073201;28;20207;-77
2023/01/27 08:38:12;;;;;;;10.40;2.40;;;24.50;99.90;;;;;;5069266;28;20232;-77
2023/01/27 08:40:44;;;;;;;11.52;2.53;;;24.50;99.90;;;;;;5070575;28;20197;-76
2023/01/27 08:43:18;;;;;;;11.23;2.25;;;24.50;99.90;;;;;;5068325;28;20195;-78
2023/01/27 08:45:52;;;;;;;11.57;2.42;;;24.40;99.90;;;;;;5066411;28;20192;-77
2023/01/27 08:48:25;;;;;;;12.75;2.25;;;24.40;99.90;;;;;;5059766;28;20188;-78
2023/01/27 08:50:56;;;;;;;9.93;2.20;;;24.40;99.90;;;;;;5064622;28;20208;-77
2023/01/27 08:53:28;;;;;;;10.95;2.35;;;24.30;99.90;;;;;;5061680;28;20246;-77
2023/01/27 08:56:00;;;;;;;8.20;2.33;;;24.30;99.90;;;;;;5052406;28;20239;-78
2023/01/27 08:58:32;;;;;;;7.97;2.30;;;24.20;99.90;;;;;;5050883;28;20229;-77
2023/01/27 09:01:03;;;;;;;9.35;2.13;;;24.20;99.90;;;;;;5068562;28;20656;-78
2023/01/27 09:03:36;;;;;;;9.60;2.10;;;24.20;99.90;;;;;;5070834;28;20193;-78
2023/01/27 09:06:10;;;;;;;9.32;2.22;;;24.10;99.90;;;;;;5070393;28;20193;-78
2023/01/27 09:08:41;;;;;;;8.88;2.17;;;24.10;99.90;;;;;;5068744;28;20279;-78
2023/01/27 09:11:16;;;;;;;8.80;2.05;;;24.10;99.90;;;;;;5072348;28;20574;-79
2023/01/27 09:13:47;;;;;;;8.20;1.80;;;24.10;99.90;;;;;;5068946;28;20656;-78
2023/01/27 09:16:18;;;;;;;8.15;2.00;;;24.10;99.90;;;;;;5064504;28;20284;-77
2023/01/27 09:18:51;;;;;;;9.63;2.33;;;24.10;99.90;;;;;;5070948;28;20298;-78
2023/01/27 09:21:22;;;;;;;8.20;2.00;;;24.10;99.90;;;;;;5070683;28;20199;-78
2023/01/27 09:23:53;;;;;;;7.75;2.10;;;24.10;99.90;;;;;;5067800;28;20201;-78
2023/01/27 09:26:27;;;;;;;10.57;1.90;;;24.10;99.90;;;;;;5075135;28;20220;-79
2023/01/27 09:28:58;;;;;;;8.90;2.05;;;24.10;99.90;;;;;;5073487;28;20223;-78
2023/01/27 09:31:29;;;;;;;9.77;2.30;;;24.00;99.90;;;;;;5066831;28;20199;-77
2023/01/27 09:34:03;;;;;;;5.72;1.95;;;24.00;99.90;;;;;;5073834;28;20656;-78
2023/01/27 09:36:38;;;;;;;6.55;2.33;;;24.00;99.90;;;;;;5076418;28;20196;-77
2023/01/27 09:39:11;;;;;;;8.50;2.05;;;24.00;99.90;;;;;;5075890;28;20298;-77
2023/01/27 09:41:57;;;;;;;10.23;2.08;;;24.00;99.90;;;;;;5074702;28;20211;-77
2023/01/27 09:44:53;;;;;;;10.45;2.00;;;24.10;99.90;;;;;;5072381;28;20295;-76
2023/01/27 09:47:54;;;;;;;7.22;2.00;;;24.00;99.90;;;;;;5074075;28;20203;-77
2023/01/27 09:50:47;;;;;;;5.68;1.77;;;24.00;99.90;;;;;;5069400;28;20304;-78
2023/01/27 09:53:50;;;;;;;9.70;2.08;;;24.00;99.90;;;;;;5062764;28;20285;-78
2023/01/27 09:56:30;;;;;;;7.10;2.45;;;23.90;99.90;;;;;;5075629;28;20224;-79
2023/01/27 09:59:17;;;;;;;5.70;2.33;;;23.90;99.90;;;;;;5075483;28;20200;-78
2023/01/27 10:01:56;;;;;;;6.97;2.40;;;23.90;99.90;;;;;;5075959;28;20750;-79
2023/01/27 10:05:03;;;;;;;7.07;2.72;;;23.80;99.90;;;;;;5075444;28;20656;-78
2023/01/27 10:07:58;;;;;;;9.25;2.67;;;23.80;99.90;;;;;;5073911;28;20204;-78
2023/01/27 10:10:43;;;;;;;8.55;2.45;;;23.80;99.90;;;;;;5075134;28;20301;-79
2023/01/27 10:13:30;;;;;;;10.82;2.35;;;23.80;99.90;;;;;;5075624;28;20260;-78
2023/01/27 10:16:21;;;;;;;9.32;2.38;;;23.70;99.90;;;;;;5056589;28;20200;-78
2023/01/27 10:19:14;;;;;;;10.13;2.45;;;23.70;99.90;;;;;;5071206;28;20275;-77
2023/01/27 10:21:52;;;;;;;10.40;2.55;;;23.70;99.90;;;;;;5070493;28;20566;-77
2023/01/27 10:24:39;;;;;;;8.93;2.90;;;23.70;99.90;;;;;;5074994;28;20199;-77
2023/01/27 10:27:17;;;;;;;12.57;2.95;;;23.70;99.90;;;;;;5075010;28;20249;-78
2023/01/27 10:29:52;;;;;;;8.32;2.55;;;23.70;99.90;;;;;;5072884;28;20702;-77
2023/01/27 10:32:28;;;;;;;8.98;2.60;;;23.70;99.90;;;;;;5072202;28;20192;-78
2023/01/27 10:35:15;;;;;;;8.30;2.60;;;23.70;99.90;;;;;;5071199;28;20193;-77
2023/01/27 10:37:58;;;;;;;8.32;2.60;;;23.70;99.90;;;;;;5070429;28;20200;-78
2023/01/27 10:40:38;;;;;;;7.65;2.50;;;23.70;99.90;;;;;;5074517;28;20228;-78
2023/01/27 10:43:15;;;;;;;10.77;2.65;;;23.80;99.90;;;;;;5071536;28;20196;-77
2023/01/27 10:45:56;;;;;;;4.38;2.22;;;23.70;99.90;;;;;;5065615;28;20197;-78
2023/01/27 10:48:38;;;;;;;9.70;2.60;;;23.70;99.90;;;;;;5069916;28;20699;-77
2023/01/27 10:51:14;;;;;;;12.13;2.67;;;23.70;99.90;;;;;;5070519;28;20300;-77
2023/01/27 10:53:56;;;;;;;8.88;2.40;;;23.70;99.90;;;;;;5074423;28;20281;-77
2023/01/27 10:56:37;;;;;;;8.70;2.45;;;23.70;99.90;;;;;;5074685;28;20192;-78
2023/01/27 10:59:16;;;;;;;7.05;2.17;;;23.70;99.90;;;;;;5074726;28;20196;-78
2023/01/27 11:01:51;;;;;;;6.72;2.25;;;23.70;99.90;;;;;;5074720;28;20744;-78
2023/01/27 11:04:30;;;;;;;10.63;2.30;;;23.70;99.90;;;;;;5066704;28;20202;-77
2023/01/27 11:07:03;;;;;;;7.80;2.60;;;23.70;99.90;;;;;;5064498;28;20641;-78
2023/01/27 11:09:36;;;;;;;12.75;3.00;;;23.70;99.90;;;;;;5071394;28;20299;-77
2023/01/27 11:12:14;;;;;;;11.65;3.22;;;23.70;99.90;;;;;;5067644;28;20193;-78
2023/01/27 11:14:49;;;;;;;14.02;4.22;;;23.70;99.90;;;;;;5071015;28;20215;-77
2023/01/27 11:17:33;;;;;;;10.23;3.60;;;23.70;99.90;;;;;;5069974;28;20196;-77
2023/01/27 11:20:13;;;;;;;8.65;2.78;;;23.70;99.90;;;;;;5074587;28;20596;-77
2023/01/27 11:22:52;;;;;;;9.73;3.22;;;23.70;99.90;;;;;;5071876;28;20193;-77
2023/01/27 11:25:30;;;;;;;7.65;2.83;;;23.70;99.90;;;;;;5074171;28;20299;-77
2023/01/27 11:28:17;;;;;;;8.55;2.50;;;23.70;99.90;;;;;;5070106;28;20197;-78
2023/01/27 11:30:54;;;;;;;11.55;2.80;;;23.70;99.90;;;;;;5074349;28;20235;-77
2023/01/27 11:33:31;;;;;;;9.60;2.55;;;23.80;99.90;;;;;;5094391;28;20198;-77
2023/01/27 11:36:02;;;;;;;7.35;2.33;;;23.70;99.90;;;;;;5071482;28;20197;-78
2023/01/27 11:38:33;;;;;;;9.63;2.40;;;23.70;99.90;;;;;;5073617;28;20680;-77
2023/01/27 11:41:04;;;;;;;8.13;2.20;;;23.70;99.90;;;;;;5073681;28;20197;-78
2023/01/27 11:43:38;;;;;;;10.63;2.20;;;23.70;99.90;;;;;;5073326;28;20193;-78
2023/01/27 11:46:13;;;;;;;6.35;2.10;;;23.80;99.90;;;;;;5073919;28;20255;-77
2023/01/27 11:48:47;;;;;;;8.57;2.55;;;23.70;99.90;;;;;;5073668;28;20272;-77
2023/01/27 11:51:22;;;;;;;7.70;2.20;;;23.70;99.90;;;;;;5073753;28;20227;-77
2023/01/27 11:54:02;;;;;;;7.30;2.30;;;23.70;99.90;;;;;;5073687;28;20199;-77
2023/01/27 11:56:33;;;;;;;9.35;2.30;;;23.70;99.90;;;;;;5073644;28;20195;-77
2023/01/27 11:59:11;;;;;;;10.00;2.20;;;23.70;99.90;;;;;;5073621;28;20207;-77
2023/01/27 12:01:48;;;;;;;8.13;2.28;;;23.70;99.90;;;;;;5073518;28;20207;-78
2023/01/27 12:04:24;;;;;;;8.60;2.25;;;23.70;99.90;;;;;;5059924;28;20200;-77
2023/01/27 12:06:58;;;;;;;5.38;2.10;;;23.70;99.90;;;;;;5057397;28;20203;-77
2023/01/27 12:09:37;;;;;;;8.38;2.28;;;23.60;99.90;;;;;;5071443;28;20283;-78
2023/01/27 12:12:32;;;;;;;9.15;2.28;;;23.60;99.90;;;;;;5070768;28;20204;-78
2023/01/27 12:15:16;;;;;;;6.75;2.30;;;23.70;99.90;;;;;;5053589;28;20201;-78
2023/01/27 12:17:50;;;;;;;8.93;2.58;;;23.60;99.90;;;;;;5057717;28;20230;-79
2023/01/27 12:20:40;;;;;;;6.60;2.40;;;23.70;99.90;;;;;;5071266;28;20203;-79
2023/01/27 12:23:21;;;;;;;7.25;2.10;;;23.60;99.90;;;;;;5070726;28;20287;-77
2023/01/27 12:25:56;;;;;;;7.20;2.42;;;23.60;99.90;;;;;;5068689;28;20283;-76
2023/01/27 12:28:31;;;;;;;10.73;2.55;;;23.60;99.90;;;;;;5069275;28;20279;-79
2023/01/27 12:31:11;;;;;;;7.65;2.50;;;23.60;99.90;;;;;;5070344;28;20219;-79
2023/01/27 12:33:47;;;;;;;5.70;2.20;;;23.60;99.90;;;;;;5069742;28;20291;-79
2023/01/27 12:36:21;;;;;;;6.63;2.22;;;23.60;99.90;;;;;;5070560;28;20197;-77
2023/01/27 12:38:55;;;;;;;7.75;2.50;;;23.60;99.90;;;;;;5069536;28;20195;-78
2023/01/27 12:41:28;;;;;;;7.32;2.55;;;23.60;99.90;;;;;;5073384;28;20195;-79
2023/01/27 12:44:13;;;;;;;12.27;2.30;;;23.50;99.90;;;;;;5073190;28;20199;-78
2023/01/27 12:47:00;;;;;;;6.82;2.60;;;23.60;99.90;;;;;;5071797;28;20287;-78
2023/01/27 12:49:36;;;;;;;7.80;3.00;;;23.50;99.90;;;;;;5057705;28;20364;-79
2023/01/27 12:52:08;;;;;;;7.47;2.47;;;23.50;99.90;;;;;;5057241;28;20215;-78
2023/01/27 12:54:39;;;;;;;6.22;2.33;;;23.50;99.90;;;;;;5072745;28;20228;-78
2023/01/27 12:57:16;;;;;;;6.15;2.58;;;23.50;99.90;;;;;;5073003;28;20323;-78
2023/01/27 12:59:52;;;;;;;9.70;2.63;;;23.50;99.90;;;;;;5072969;28;20230;-78
2023/01/27 13:02:27;;;;;;;7.95;2.40;;;23.50;99.90;;;;;;5072911;28;20193;-78
2023/01/27 13:05:02;;;;;;;7.50;2.40;;;23.50;99.90;;;;;;5073392;28;20287;-79
2023/01/27 13:07:37;;;;;;;6.30;2.55;;;23.50;99.90;;;;;;5069196;28;20212;-77
2023/01/27 13:10:17;;;;;;;4.63;2.38;;;23.40;99.90;;;;;;5071577;28;20214;-79
2023/01/27 13:12:53;;;;;;;7.43;2.55;;;23.50;99.90;;;;;;5072468;28;20223;-78
2023/01/27 13:15:27;;;;;;;7.97;2.70;;;23.50;99.90;;;;;;5071524;28;20199;-77
2023/01/27 13:18:01;;;;;;;6.90;2.45;;;23.60;99.90;;;;;;5071707;28;20859;-79
2023/01/27 13:20:36;;;;;;;7.38;2.42;;;23.50;99.90;;;;;;5069966;28;20567;-77
2023/01/27 13:23:12;;;;;;;6.75;2.25;;;23.50;99.90;;;;;;5068685;28;20203;-79
2023/01/27 13:25:47;;;;;;;5.28;2.42;;;23.50;99.90;;;;;;5071109;28;20207;-79
2023/01/27 13:28:23;;;;;;;4.80;2.45;;;23.50;99.90;;;;;;5070898;28;20203;-79
2023/01/27 13:30:58;;;;;;;7.18;2.22;;;23.50;99.90;;;;;;5071823;28;20312;-79
2023/01/27 13:33:39;;;;;;;4.22;2.28;;;23.50;99.90;;;;;;5070296;28;20199;-79
2023/01/27 13:36:16;;;;;;;9.80;2.72;;;23.60;99.90;;;;;;5069677;28;20196;-79
2023/01/27 13:38:55;;;;;;;9.90;2.33;;;23.60;99.90;;;;;;5075464;28;20184;-79
2023/01/27 13:41:32;;;;;;;8.90;2.75;;;23.60;99.90;;;;;;5092818;28;20279;-80
2023/01/27 13:44:12;;;;;;;6.85;2.53;;;23.60;99.90;;;;;;5071001;28;20279;-79
2023/01/27 13:46:43;;;;;;;7.80;2.30;;;23.60;99.90;;;;;;5072097;28;20189;-79
2023/01/27 13:49:30;;;;;;;6.22;2.30;;;23.60;99.90;;;;;;5072647;28;20540;-79